Time;durP1;ratioP1;P1;durP2;ratioP2;P2;SDS_P1;SDS_P2;PMS_P1;PMS_P2;Temp;Humidity;BMP_temperature;BMP_pressure;BME280_temperature;BME280_humidity;BME280_pressure;Samples;Min_cycle;Max_cycle;Signal;HPM_P1;HPM_P2
2023/09/08 00:02:25;;;;;;;15.32;6.38;;;;;;;-144.73;100.00;54259.91;5031900;28;20079;-71
2023/09/08 00:04:51;;;;;;;14.57;6.00;;;;;;;-144.73;100.00;54284.56;5020166;28;20030;-70
2023/09/08 00:07:16;;;;;;;11.45;6.13;;;;;;;-144.73;100.00;54253.75;5034212;28;20028;-71
2023/09/08 00:09:41;;;;;;;16.05;6.57;;;;;;;-144.73;100.00;54231.19;5031278;28;20032;-71
2023/09/08 00:12:07;;;;;;;9.80;6.72;;;;;;;-144.73;100.00;54239.41;5017015;28;20041;-71
2023/09/08 00:14:32;;;;;;;8.80;5.68;;;;;;;-144.73;100.00;54290.72;5012827;28;20045;-71
2023/09/08 00:16:58;;;;;;;9.27;5.80;;;;;;;-144.73;100.00;54239.41;5012903;28;20053;-70
2023/09/08 00:19:23;;;;;;;10.32;5.63;;;;;;;-144.73;100.00;54247.59;5029658;28;20037;-71
2023/09/08 00:21:49;;;;;;;7.97;5.75;;;;;;;-144.73;100.00;54251.72;5033634;28;20100;-71
2023/09/08 00:24:15;;;;;;;9.45;6.05;;;;;;;-144.73;100.00;54342.03;5031015;28;20520;-71
2023/09/08 00:26:40;;;;;;;10.98;5.95;;;;;;;-144.73;100.00;54284.56;5031897;28;20067;-71
2023/09/08 00:29:06;;;;;;;8.40;5.55;;;;;;;-144.73;100.00;54259.91;5031294;28;20033;-71
2023/09/08 00:31:31;;;;;;;11.25;5.93;;;;;;;-144.73;100.00;54259.91;5033417;28;20025;-71
2023/09/08 00:33:57;;;;;;;9.25;6.20;;;;;;;-144.73;100.00;54255.81;5031640;28;20561;-70
2023/09/08 00:36:22;;;;;;;10.75;5.25;;;;;;;-144.73;100.00;54280.44;5031833;28;20033;-71
2023/09/08 00:38:47;;;;;;;14.60;5.85;;;;;;;-144.73;100.00;54342.03;5030993;28;20116;-71
2023/09/08 00:41:13;;;;;;;9.85;4.90;;;;;;;-144.73;100.00;54268.13;5032840;28;20053;-70
2023/09/08 00:43:38;;;;;;;14.18;5.65;;;;;;;-144.73;100.00;54342.03;5030641;28;20093;-71
2023/09/08 00:46:05;;;;;;;10.00;5.72;;;;;;;-144.73;100.00;54247.59;5032315;28;20013;-72
2023/09/08 00:48:30;;;;;;;14.88;6.40;;;;;;;-144.73;100.00;54276.34;5030897;28;20092;-71
2023/09/08 00:50:57;;;;;;;11.75;6.40;;;;;;;-144.73;100.00;54309.19;5031475;28;20025;-71
2023/09/08 00:53:23;;;;;;;13.10;5.90;;;;;;;-144.73;100.00;54231.19;5029420;28;20060;-71
2023/09/08 00:55:50;;;;;;;7.45;5.95;;;;;;;-144.73;100.00;54247.59;5029343;28;20103;-70
2023/09/08 00:58:15;;;;;;;16.35;5.80;;;;;;;-144.73;100.00;54292.75;5030791;28;20078;-71
2023/09/08 01:00:41;;;;;;;8.10;5.63;;;;;;;-144.73;100.00;54280.44;5031467;28;20041;-71
2023/09/08 01:03:06;;;;;;;13.85;5.88;;;;;;;-144.73;100.00;54300.97;5030844;28;20510;-71
2023/09/08 01:05:32;;;;;;;9.55;5.85;;;;;;;-144.73;100.00;54255.81;5032694;28;20025;-71
2023/09/08 01:07:59;;;;;;;8.70;5.93;;;;;;;-144.73;100.00;54284.56;5030774;28;20025;-71
2023/09/08 01:10:24;;;;;;;15.52;6.40;;;;;;;-144.73;100.00;54247.59;5031043;28;20484;-70
2023/09/08 01:12:50;;;;;;;9.20;6.22;;;;;;;-144.73;100.00;54268.13;5031017;28;20040;-70
2023/09/08 01:15:15;;;;;;;11.85;5.70;;;;;;;-144.73;100.00;54255.81;5031280;28;20148;-71
2023/09/08 01:17:40;;;;;;;9.63;5.95;;;;;;;-144.73;100.00;54255.81;5032152;28;20022;-71
2023/09/08 01:20:23;;;;;;;10.05;5.78;;;;;;;-144.73;100.00;54288.66;5032266;28;20029;-70
2023/09/08 01:23:04;;;;;;;8.80;5.75;;;;;;;-144.73;100.00;54276.34;5031141;28;20033;-70
2023/09/08 01:25:31;;;;;;;13.27;6.38;;;;;;;-144.73;100.00;54300.97;5031359;28;20387;-71
2023/09/08 01:28:00;;;;;;;9.02;6.20;;;;;;;-144.73;100.00;54317.38;5031253;28;20030;-70
2023/09/08 01:30:28;;;;;;;14.23;7.15;;;;;;;-144.73;100.00;54292.75;5032412;28;20082;-71
2023/09/08 01:32:55;;;;;;;8.38;5.63;;;;;;;-144.73;100.00;54296.88;5030922;28;20029;-71
2023/09/08 01:35:21;;;;;;;13.35;6.90;;;;;;;-144.73;100.00;54292.75;5032339;28;20070;-70
2023/09/08 01:37:48;;;;;;;10.30;6.40;;;;;;;-144.73;100.00;54292.75;5030521;28;20041;-70
2023/09/08 01:40:13;;;;;;;10.85;6.15;;;;;;;-144.73;100.00;54329.72;5031167;28;20083;-70
2023/09/08 01:42:40;;;;;;;14.35;6.47;;;;;;;-144.73;100.00;54276.34;5030113;28;20053;-70
2023/09/08 01:45:06;;;;;;;12.60;6.45;;;;;;;-144.73;100.00;54288.66;5031151;28;20044;-70
2023/09/08 01:47:32;;;;;;;16.33;7.22;;;;;;;-144.73;100.00;54255.81;5029897;28;20036;-70
2023/09/08 01:49:58;;;;;;;17.08;7.47;;;;;;;-144.73;100.00;54251.72;5030365;28;20025;-70
2023/09/08 01:52:24;;;;;;;8.98;6.15;;;;;;;-144.73;100.00;54327.66;5030465;28;20029;-70
2023/09/08 01:54:50;;;;;;;18.30;7.55;;;;;;;-144.73;100.00;54276.34;5030956;28;20045;-71
2023/09/08 01:57:15;;;;;;;16.70;7.18;;;;;;;-144.73;100.00;54255.81;5031952;28;20030;-71
2023/09/08 01:59:41;;;;;;;19.20;8.07;;;;;;;-144.73;100.00;54307.13;5030494;28;20099;-70
2023/09/08 02:02:25;;;;;;;11.35;7.18;;;;;;;-144.73;100.00;54284.56;5030321;28;20055;-70
2023/09/08 02:04:50;;;;;;;13.13;7.15;;;;;;;-144.73;100.00;54296.88;5031672;28;20017;-71
2023/09/08 02:07:16;;;;;;;12.85;7.53;;;;;;;-144.73;100.00;54296.88;5020792;28;20030;-71
2023/09/08 02:09:42;;;;;;;13.95;7.32;;;;;;;-144.73;100.00;54280.44;5016337;28;20038;-71
2023/09/08 02:12:07;;;;;;;12.82;6.93;;;;;;;-144.73;100.00;54280.44;5034275;28;20030;-70
2023/09/08 02:14:32;;;;;;;11.35;6.57;;;;;;;-144.73;100.00;54282.50;5035225;28;20041;-70
2023/09/08 02:16:58;;;;;;;12.23;7.22;;;;;;;-144.73;100.00;54255.81;5034490;28;20112;-70
2023/09/08 02:19:23;;;;;;;9.52;6.05;;;;;;;-144.73;100.00;54309.19;5033972;28;20042;-70
2023/09/08 02:21:49;;;;;;;12.23;8.35;;;;;;;-144.73;100.00;54276.34;5023026;28;20117;-70
2023/09/08 02:24:14;;;;;;;10.82;7.00;;;;;;;-144.73;100.00;54268.13;5029061;28;20029;-70
2023/09/08 02:26:40;;;;;;;21.95;7.15;;;;;;;-144.73;100.00;54284.56;5034678;28;20029;-70
2023/09/08 02:29:06;;;;;;;10.60;7.32;;;;;;;-144.73;100.00;54278.41;5033683;28;20026;-70
2023/09/08 02:31:31;;;;;;;9.90;7.20;;;;;;;-144.73;100.00;54292.75;5034429;28;20074;-70
2023/09/08 02:33:56;;;;;;;11.10;6.82;;;;;;;-144.73;100.00;54268.13;5034850;28;20048;-70
2023/09/08 02:36:25;;;;;;;12.05;7.22;;;;;;;-144.73;100.00;54284.56;5034339;28;20029;-72
2023/09/08 02:38:55;;;;;;;15.80;6.97;;;;;;;-144.73;100.00;54309.19;5033390;28;20068;-70
2023/09/08 02:41:21;;;;;;;15.00;7.45;;;;;;;-144.73;100.00;54239.41;5033822;28;20033;-70
2023/09/08 02:43:47;;;;;;;16.30;7.20;;;;;;;-144.73;100.00;54288.66;5033224;28;20034;-70
2023/09/08 02:46:13;;;;;;;10.68;7.35;;;;;;;-144.73;100.00;54266.06;5035148;28;20032;-70
2023/09/08 02:48:38;;;;;;;12.40;7.60;;;;;;;-144.73;100.00;54284.56;5033214;28;20124;-70
2023/09/08 02:51:04;;;;;;;15.13;7.03;;;;;;;-144.73;100.00;54296.88;5034944;28;20053;-72
2023/09/08 02:53:30;;;;;;;17.27;7.18;;;;;;;-144.73;100.00;54305.06;5032145;28;20128;-72
2023/09/08 02:55:56;;;;;;;9.50;7.15;;;;;;;-144.73;100.00;54288.66;5033270;28;20017;-71
2023/09/08 02:58:21;;;;;;;11.02;6.40;;;;;;;-144.73;100.00;54321.50;5033148;28;20083;-71
2023/09/08 03:00:47;;;;;;;15.82;8.38;;;;;;;-144.73;100.00;54296.88;5033238;28;20507;-72
2023/09/08 03:03:12;;;;;;;14.60;7.65;;;;;;;-144.73;100.00;54321.50;5034353;28;20026;-71
2023/09/08 03:05:38;;;;;;;16.55;7.88;;;;;;;-144.73;100.00;54325.59;5033468;28;20033;-70
2023/09/08 03:08:03;;;;;;;15.82;7.95;;;;;;;-144.73;100.00;54278.41;5034441;28;20026;-70
2023/09/08 03:10:29;;;;;;;11.40;7.68;;;;;;;-144.73;100.00;54296.88;5033336;28;20079;-70
2023/09/08 03:12:54;;;;;;;17.15;8.23;;;;;;;-144.73;100.00;54296.88;5034349;28;20404;-70
2023/09/08 03:15:20;;;;;;;13.93;7.72;;;;;;;-144.73;100.00;54276.34;5033991;28;20018;-69
2023/09/08 03:17:45;;;;;;;16.85;8.82;;;;;;;-144.73;100.00;54342.03;5032344;28;20033;-70
2023/09/08 03:20:13;;;;;;;10.48;7.35;;;;;;;-144.73;100.00;54305.06;5034077;28;20029;-70
2023/09/08 03:22:38;;;;;;;15.18;8.23;;;;;;;-144.73;100.00;54288.66;5033747;28;20120;-70
2023/09/08 03:25:04;;;;;;;12.48;7.95;;;;;;;-144.73;100.00;54276.34;5034433;28;20048;-70
2023/09/08 03:27:29;;;;;;;13.32;8.35;;;;;;;-144.73;100.00;54276.34;5032874;28;20032;-70
2023/09/08 03:29:55;;;;;;;18.30;7.82;;;;;;;-144.73;100.00;54309.19;5033365;28;20017;-70
2023/09/08 03:32:20;;;;;;;15.63;8.18;;;;;;;-144.73;100.00;54294.81;5033093;28;20021;-71
2023/09/08 03:34:46;;;;;;;14.45;8.05;;;;;;;-144.73;100.00;54313.28;5032619;28;20084;-70
2023/09/08 03:37:11;;;;;;;13.10;8.95;;;;;;;-144.73;100.00;54286.59;5033078;28;20029;-70
2023/09/08 03:39:36;;;;;;;15.93;8.20;;;;;;;-144.73;100.00;54280.44;5033778;28;20041;-71
2023/09/08 03:42:02;;;;;;;11.52;8.30;;;;;;;-144.73;100.00;54296.88;5033203;28;20032;-70
2023/09/08 03:44:28;;;;;;;14.95;7.95;;;;;;;-144.73;100.00;54317.38;5032092;28;20033;-70
2023/09/08 03:46:53;;;;;;;11.05;8.38;;;;;;;-144.73;100.00;54305.06;5033557;28;20108;-70
2023/09/08 03:49:19;;;;;;;13.13;7.63;;;;;;;-144.73;100.00;54280.44;5033449;28;20037;-70
2023/09/08 03:51:44;;;;;;;22.00;8.68;;;;;;;-144.73;100.00;54346.13;5032934;28;20088;-70
2023/09/08 03:54:10;;;;;;;15.00;8.93;;;;;;;-144.73;100.00;54321.50;5032188;28;20046;-70
2023/09/08 03:56:35;;;;;;;19.30;8.00;;;;;;;-144.73;100.00;54276.34;5032413;28;20025;-70
2023/09/08 03:59:01;;;;;;;14.48;7.68;;;;;;;-144.73;100.00;54315.34;5032008;28;20026;-71
2023/09/08 04:01:26;;;;;;;16.52;8.55;;;;;;;-144.73;100.00;54311.22;5025337;28;20018;-70
2023/09/08 04:03:52;;;;;;;13.90;8.85;;;;;;;-144.73;100.00;54296.88;5031026;28;20060;-70
2023/09/08 04:06:17;;;;;;;14.38;8.02;;;;;;;-144.73;100.00;54309.19;5032686;28;20025;-70
2023/09/08 04:08:42;;;;;;;16.17;9.07;;;;;;;-144.73;100.00;54305.06;5031973;28;20092;-70
2023/09/08 04:11:08;;;;;;;13.65;8.20;;;;;;;-144.73;100.00;54280.44;5032611;28;20029;-69
2023/09/08 04:13:33;;;;;;;23.83;8.02;;;;;;;-144.73;100.00;54323.53;5031314;28;20037;-70
2023/09/08 04:15:58;;;;;;;12.68;8.35;;;;;;;-144.73;100.00;54266.06;5033294;28;20025;-70
2023/09/08 04:18:24;;;;;;;12.80;8.38;;;;;;;-144.73;100.00;54321.50;5031571;28;20060;-69
2023/09/08 04:20:49;;;;;;;15.38;8.38;;;;;;;-144.73;100.00;54305.06;5032719;28;20021;-72
2023/09/08 04:23:15;;;;;;;13.48;8.68;;;;;;;-144.73;100.00;54307.13;5030721;28;20121;-72
2023/09/08 04:25:40;;;;;;;19.40;8.52;;;;;;;-144.73;100.00;54311.22;5028768;28;20108;-72
2023/09/08 04:28:06;;;;;;;17.98;8.82;;;;;;;-144.73;100.00;54346.13;5030795;28;20030;-72
2023/09/08 04:30:31;;;;;;;12.35;7.97;;;;;;;-144.73;100.00;54344.06;5030497;28;20033;-72
2023/09/08 04:32:56;;;;;;;12.77;8.40;;;;;;;-144.73;100.00;54325.59;5030442;28;20048;-72
2023/09/08 04:35:22;;;;;;;18.60;9.52;;;;;;;-144.73;100.00;54276.34;5030297;28;20392;-72
2023/09/08 04:37:48;;;;;;;16.70;9.50;;;;;;;-144.73;100.00;54276.34;5028800;28;20074;-72
2023/09/08 04:40:14;;;;;;;18.80;9.18;;;;;;;-144.73;100.00;54284.56;5023606;28;20033;-72
2023/09/08 04:42:39;;;;;;;13.45;9.10;;;;;;;-144.73;100.00;54288.66;5018684;28;20029;-71
2023/09/08 04:45:05;;;;;;;17.02;9.75;;;;;;;-144.73;100.00;54317.38;5022522;28;20026;-72
2023/09/08 04:47:31;;;;;;;17.33;8.88;;;;;;;-144.73;100.00;54276.34;5025302;28;20029;-72
2023/09/08 04:49:56;;;;;;;20.95;10.48;;;;;;;-144.73;100.00;54298.91;5027234;28;20037;-72
2023/09/08 04:52:22;;;;;;;19.80;11.27;;;;;;;-144.73;100.00;54292.75;5030253;28;20026;-72
2023/09/08 04:54:48;;;;;;;16.30;10.18;;;;;;;-144.73;100.00;54313.28;5029628;28;20045;-72
2023/09/08 04:57:13;;;;;;;14.95;8.93;;;;;;;-144.73;100.00;54317.38;5021553;28;20032;-72
2023/09/08 04:59:39;;;;;;;16.67;9.43;;;;;;;-144.73;100.00;54313.28;5018592;28;20033;-72
2023/09/08 05:02:04;;;;;;;17.92;9.07;;;;;;;-144.73;100.00;54305.06;5018857;28;20033;-72
2023/09/08 05:04:30;;;;;;;16.58;9.98;;;;;;;-144.73;100.00;54309.19;5016770;28;20038;-72
2023/09/08 05:06:55;;;;;;;14.93;9.80;;;;;;;-144.73;100.00;54305.06;5025888;28;20025;-72
2023/09/08 05:09:21;;;;;;;12.40;8.18;;;;;;;-144.73;100.00;54276.34;5029445;28;20093;-72
2023/09/08 05:11:46;;;;;;;22.48;9.68;;;;;;;-144.73;100.00;54329.72;5021980;28;20025;-71
2023/09/08 05:14:11;;;;;;;24.70;10.60;;;;;;;-144.73;100.00;54329.72;5029815;28;20124;-72
2023/09/08 05:16:39;;;;;;;17.85;8.05;;;;;;;-144.73;100.00;54292.75;5025908;28;20057;-72
2023/09/08 05:19:05;;;;;;;18.00;9.38;;;;;;;-144.73;100.00;54333.81;5025614;28;20026;-72
2023/09/08 05:21:31;;;;;;;23.85;9.05;;;;;;;-144.73;100.00;54315.34;5028246;28;20021;-72
2023/09/08 05:23:57;;;;;;;13.48;8.75;;;;;;;-144.73;100.00;54335.88;5024620;28;20060;-72
2023/09/08 05:26:22;;;;;;;15.25;9.63;;;;;;;-144.73;100.00;54321.50;5022812;28;20057;-72
2023/09/08 05:28:48;;;;;;;14.75;8.35;;;;;;;-144.73;100.00;54329.72;5029611;28;20034;-72
2023/09/08 05:31:13;;;;;;;19.20;8.90;;;;;;;-144.73;100.00;54305.06;5025861;28;20426;-72
2023/09/08 05:33:38;;;;;;;20.33;9.65;;;;;;;-144.73;100.00;54317.38;5023232;28;20045;-72
2023/09/08 05:36:04;;;;;;;19.63;10.27;;;;;;;-144.73;100.00;54323.53;5018584;28;20033;-72
2023/09/08 05:38:29;;;;;;;14.68;9.30;;;;;;;-144.73;100.00;54337.91;5023022;28;20040;-72
2023/09/08 05:40:55;;;;;;;18.58;9.77;;;;;;;-144.73;100.00;54321.50;5016868;28;20026;-72
2023/09/08 05:43:21;;;;;;;12.25;8.50;;;;;;;-144.73;100.00;54325.59;5018061;28;20062;-72
2023/09/08 05:45:46;;;;;;;18.75;9.38;;;;;;;-144.73;100.00;54333.81;5022326;28;20112;-72
2023/09/08 05:48:12;;;;;;;23.13;10.38;;;;;;;-144.73;100.00;54309.19;5021801;28;20033;-72
2023/09/08 05:50:37;;;;;;;33.08;9.10;;;;;;;-144.73;100.00;54296.88;5029061;28;20017;-73
2023/09/08 05:53:03;;;;;;;15.40;8.10;;;;;;;-144.73;100.00;54331.75;5022264;28;20037;-72
2023/09/08 05:55:28;;;;;;;16.40;8.35;;;;;;;-144.73;100.00;54321.50;5023533;28;20034;-72
2023/09/08 05:57:53;;;;;;;19.92;9.20;;;;;;;-144.73;100.00;54329.72;5022666;28;20058;-72
2023/09/08 06:00:19;;;;;;;18.48;9.13;;;;;;;-144.73;100.00;54305.06;5025281;28;20041;-72
2023/09/08 06:02:45;;;;;;;20.77;9.30;;;;;;;-144.73;100.00;54350.22;5028426;28;20034;-71
2023/09/08 06:05:10;;;;;;;19.42;8.48;;;;;;;-144.73;100.00;54276.34;5029332;28;20107;-71
2023/09/08 06:07:36;;;;;;;17.40;8.73;;;;;;;-144.73;100.00;54319.44;5028579;28;20079;-71
2023/09/08 06:10:01;;;;;;;20.10;8.57;;;;;;;-144.73;100.00;54276.34;5027479;28;20032;-71
2023/09/08 06:12:26;;;;;;;28.88;9.50;;;;;;;-144.73;100.00;54288.66;5026382;28;20077;-71
2023/09/08 06:14:52;;;;;;;21.45;8.75;;;;;;;-144.73;100.00;54284.56;5028968;28;20029;-71
2023/09/08 06:17:17;;;;;;;13.13;8.70;;;;;;;-144.73;100.00;54325.59;5018370;28;20029;-71
2023/09/08 06:19:43;;;;;;;14.75;8.63;;;;;;;-144.73;100.00;54305.06;5025895;28;20034;-72
2023/09/08 06:22:08;;;;;;;29.08;9.43;;;;;;;-144.73;100.00;54313.28;5028868;28;20029;-72
2023/09/08 06:24:34;;;;;;;26.38;8.95;;;;;;;-144.73;100.00;54300.97;5026790;28;20097;-72
2023/09/08 06:27:00;;;;;;;21.83;8.02;;;;;;;-144.73;100.00;54313.28;5024828;28;20038;-71
2023/09/08 06:29:26;;;;;;;94.22;13.25;;;;;;;-144.73;100.00;54321.50;5022222;28;20042;-71
2023/09/08 06:31:51;;;;;;;78.22;12.52;;;;;;;-144.73;100.00;54300.97;5029916;28;20059;-71
2023/09/08 06:34:20;;;;;;;23.67;9.30;;;;;;;-144.73;100.00;54350.22;5014718;28;20041;-71
2023/09/08 06:36:45;;;;;;;27.08;8.60;;;;;;;-144.73;100.00;54325.59;5024136;28;20103;-72
2023/09/08 06:39:11;;;;;;;24.90;9.10;;;;;;;-144.73;100.00;54362.53;5021877;28;20065;-72
2023/09/08 06:41:36;;;;;;;14.50;9.30;;;;;;;-144.73;100.00;54325.59;5029178;28;20486;-72
2023/09/08 06:44:01;;;;;;;14.88;8.85;;;;;;;-144.73;100.00;54300.97;5024543;28;20038;-72
2023/09/08 06:46:27;;;;;;;11.25;6.88;;;;;;;-144.73;100.00;54325.59;5022359;28;20119;-72
2023/09/08 06:48:52;;;;;;;15.57;8.52;;;;;;;-144.73;100.00;54305.06;5020660;28;20057;-71
2023/09/08 06:51:18;;;;;;;15.48;8.45;;;;;;;-144.73;100.00;54329.72;5025332;28;20025;-71
2023/09/08 06:53:44;;;;;;;15.88;8.77;;;;;;;-144.73;100.00;54311.22;5028504;28;20038;-71
2023/09/08 06:56:09;;;;;;;12.48;7.65;;;;;;;-144.73;100.00;54296.88;5032240;28;20037;-72
2023/09/08 06:58:35;;;;;;;16.27;7.85;;;;;;;-144.73;100.00;54294.81;5028211;28;20087;-72
2023/09/08 07:01:00;;;;;;;14.77;8.43;;;;;;;-144.73;100.00;54288.66;5032501;28;20049;-72
2023/09/08 07:03:26;;;;;;;34.00;9.48;;;;;;;-144.73;100.00;54329.72;5027484;28;20053;-71
2023/09/08 07:05:52;;;;;;;14.57;7.75;;;;;;;-144.73;100.00;54288.66;5027752;28;20017;-72
2023/09/08 07:08:17;;;;;;;14.18;7.82;;;;;;;-144.73;100.00;54292.75;5032618;28;20405;-72
2023/09/08 07:10:43;;;;;;;17.08;8.00;;;;;;;-144.73;100.00;54305.06;5029039;28;20033;-72
2023/09/08 07:13:09;;;;;;;13.82;7.60;;;;;;;-144.73;100.00;54276.34;5031808;28;20240;-71
2023/09/08 07:15:34;;;;;;;14.75;8.68;;;;;;;-144.73;100.00;54278.41;5032044;28;20112;-72
2023/09/08 07:17:59;;;;;;;14.02;7.82;;;;;;;-144.73;100.00;54305.06;5025699;28;20060;-72
2023/09/08 07:20:25;;;;;;;19.55;8.63;;;;;;;-144.73;100.00;54300.97;5028518;28;20033;-72
2023/09/08 07:22:50;;;;;;;15.57;7.63;;;;;;;-144.73;100.00;54296.88;5031698;28;20040;-72
2023/09/08 07:25:15;;;;;;;23.85;9.65;;;;;;;-144.73;100.00;54303.03;5027365;28;20033;-72
2023/09/08 07:27:41;;;;;;;17.02;8.98;;;;;;;-144.73;100.00;54305.06;5030789;28;20044;-72
2023/09/08 07:30:07;;;;;;;24.70;9.85;;;;;;;-144.73;100.00;54292.75;5028706;28;20056;-72
2023/09/08 07:32:32;;;;;;;19.42;9.45;;;;;;;-144.73;100.00;54321.50;5024938;28;20029;-72
2023/09/08 07:34:57;;;;;;;22.42;9.88;;;;;;;-144.73;100.00;54276.34;5032786;28;20040;-72
2023/09/08 07:37:24;;;;;;;29.90;11.05;;;;;;;-144.73;100.00;54300.97;5033480;28;20021;-73
2023/09/08 07:39:50;;;;;;;19.50;9.75;;;;;;;-144.73;100.00;54313.28;5029866;28;20048;-72
2023/09/08 07:42:16;;;;;;;18.55;9.07;;;;;;;-144.73;100.00;54282.50;5027379;28;20068;-72
2023/09/08 07:44:41;;;;;;;20.08;8.65;;;;;;;-144.73;100.00;54239.41;5024488;28;20061;-72
2023/09/08 07:47:07;;;;;;;20.25;9.18;;;;;;;-144.73;100.00;54280.44;5029044;28;20037;-72
2023/09/08 07:49:36;;;;;;;25.20;12.50;;;;;;;-144.73;100.00;54255.81;5029636;28;20037;-72
2023/09/08 07:52:01;;;;;;;18.38;8.77;;;;;;;-144.73;100.00;54239.41;5025937;28;20025;-72
2023/09/08 07:54:26;;;;;;;22.42;9.30;;;;;;;-144.73;100.00;54259.91;5022623;28;20033;-73
2023/09/08 07:56:52;;;;;;;34.30;9.85;;;;;;;-144.73;100.00;54284.56;5028179;28;20021;-72
2023/09/08 07:59:17;;;;;;;28.88;7.75;;;;;;;-144.73;100.00;54282.50;5025816;28;20033;-73
2023/09/08 08:01:43;;;;;;;12.82;8.18;;;;;;;-144.73;100.00;54288.66;5029236;28;20030;-72
2023/09/08 08:04:08;;;;;;;18.67;8.35;;;;;;;-144.73;100.00;54255.81;5028004;28;20056;-73
2023/09/08 08:06:34;;;;;;;20.75;8.07;;;;;;;-144.73;100.00;54288.66;5028212;28;20063;-73
2023/09/08 08:09:00;;;;;;;14.02;6.70;;;;;;;-144.73;97.62;54214.78;5030406;28;20041;-72
2023/09/08 08:11:26;;;;;;;14.00;7.80;;;;;;;-144.73;97.69;54222.97;5028546;28;20484;-72
2023/09/08 08:13:51;;;;;;;14.88;6.72;;;;;;;-144.73;95.14;54202.44;5030785;28;20087;-73
2023/09/08 08:16:17;;;;;;;17.67;7.97;;;;;;;-144.73;94.90;54276.34;5025501;28;20096;-73
2023/09/08 08:18:42;;;;;;;9.80;6.63;;;;;;;-144.73;94.77;54280.44;5026308;28;20370;-72
2023/09/08 08:21:08;;;;;;;16.45;6.80;;;;;;;-144.73;94.10;54247.59;5026327;28;20017;-73
2023/09/08 08:23:35;;;;;;;17.35;7.28;;;;;;;-144.73;92.26;54255.81;5031785;28;20120;-73
2023/09/08 08:26:00;;;;;;;22.38;8.45;;;;;;;-144.73;93.22;54278.41;5026498;28;20164;-73
2023/09/08 08:28:25;;;;;;;18.88;8.35;;;;;;;-144.73;90.89;54235.28;5029971;28;20065;-73
2023/09/08 08:30:51;;;;;;;11.13;7.72;;;;;;;-144.73;86.02;54239.41;5025606;28;20036;-73
2023/09/08 08:33:17;;;;;;;13.73;7.38;;;;;;;-144.73;87.23;54259.91;5030177;28;20030;-71
2023/09/08 08:35:49;;;;;;;19.05;7.30;;;;;;;-144.73;85.83;54239.41;5030663;28;20025;-74
2023/09/08 08:38:15;;;;;;;20.13;7.45;;;;;;;-144.73;87.56;54247.59;5028124;28;20063;-74
2023/09/08 08:40:40;;;;;;;18.52;7.78;;;;;;;-144.73;84.57;54247.59;5028151;28;20486;-73
2023/09/08 08:43:05;;;;;;;24.58;7.82;;;;;;;-144.73;85.26;54255.81;5026550;28;20152;-73
2023/09/08 08:45:32;;;;;;;12.88;6.85;;;;;;;-144.73;84.62;54288.66;5019695;28;20032;-73
2023/09/08 08:47:59;;;;;;;11.88;7.22;;;;;;;-144.73;84.21;54259.91;5016592;28;20049;-73
2023/09/08 08:50:24;;;;;;;18.08;7.47;;;;;;;-144.73;80.81;54292.75;5020213;28;20050;-73
2023/09/08 08:52:50;;;;;;;15.95;6.88;;;;;;;-144.73;79.39;54227.09;5021579;28;20081;-73
2023/09/08 08:55:15;;;;;;;16.60;6.88;;;;;;;-144.73;76.89;54251.72;5038534;28;20029;-73
2023/09/08 08:57:41;;;;;;;36.38;7.50;;;;;;;-144.73;79.24;54229.13;5016094;28;20049;-73
2023/09/08 09:00:10;;;;;;;23.52;7.53;;;;;;;-144.73;75.33;54227.09;5022171;28;20025;-73
2023/09/08 09:02:38;;;;;;;12.77;6.60;;;;;;;-144.73;73.26;54231.19;5022737;28;20018;-73
2023/09/08 09:05:05;;;;;;;21.60;7.97;;;;;;;-144.73;74.67;54210.66;5017287;28;20013;-73
2023/09/08 09:07:34;;;;;;;16.65;6.90;;;;;;;-144.73;75.30;54190.13;5020822;28;20096;-73
2023/09/08 09:10:00;;;;;;;14.00;6.70;;;;;;;-144.73;76.00;54255.81;5018580;28;20022;-73
2023/09/08 09:12:29;;;;;;;9.98;7.07;;;;;;;-144.73;73.63;54222.97;5016490;28;20412;-73
2023/09/08 09:14:54;;;;;;;15.45;7.55;;;;;;;-144.73;74.02;54210.66;5017802;28;20047;-73
2023/09/08 09:17:20;;;;;;;11.68;7.13;;;;;;;-144.73;74.67;54206.56;5018169;28;20109;-71
2023/09/08 09:19:45;;;;;;;11.45;6.30;;;;;;;-144.73;72.88;54239.41;5018825;28;20029;-74
2023/09/08 09:22:10;;;;;;;14.13;6.25;;;;;;;-144.73;69.54;54190.13;5027164;28;20029;-74
2023/09/08 09:24:43;;;;;;;10.07;6.80;;;;;;;-144.73;68.77;54222.97;5024867;28;20030;-73
2023/09/08 09:27:10;;;;;;;16.13;7.85;;;;;;;-144.73;69.90;54218.88;5018825;28;20043;-73
2023/09/08 09:29:49;;;;;;;13.23;6.50;;;;;;;-144.73;67.97;54231.19;5021063;28;20045;-74
2023/09/08 09:32:15;;;;;;;12.70;6.30;;;;;;;-144.73;68.84;54220.94;5018466;28;20040;-74
2023/09/08 09:34:50;;;;;;;16.73;7.80;;;;;;;-144.73;67.08;54235.28;5022210;28;20051;-74
2023/09/08 09:37:16;;;;;;;12.75;6.47;;;;;;;-144.73;69.33;54202.44;5026795;28;20037;-74
2023/09/08 09:39:41;;;;;;;9.32;6.45;;;;;;;-144.73;66.64;54247.59;5023095;28;20092;-74
2023/09/08 09:42:07;;;;;;;13.80;6.20;;;;;;;-144.73;67.37;54194.25;5022976;28;20034;-73
2023/09/08 09:44:32;;;;;;;11.48;6.32;;;;;;;-144.73;65.04;54206.56;5018318;28;20093;-73
2023/09/08 09:47:00;;;;;;;21.13;6.50;;;;;;;-144.73;64.17;54163.47;5024678;28;20021;-73
2023/09/08 09:49:31;;;;;;;21.08;6.57;;;;;;;-144.73;63.68;54214.78;5020300;28;20045;-74
2023/09/08 09:51:57;;;;;;;;;;;;;;;-144.73;63.54;54222.97;5025415;28;20017;-74
2023/09/08 09:54:23;;;;;;;15.88;8.93;;;;;;;-144.73;64.92;54235.28;5026064;28;20000;-74
2023/09/08 09:56:48;;;;;;;11.98;6.38;;;;;;;-144.73;61.69;54202.44;5018812;28;20106;-74
2023/09/08 09:59:14;;;;;;;8.75;5.85;;;;;;;-144.73;61.83;54222.97;5023586;28;20093;-73
2023/09/08 10:01:41;;;;;;;13.52;6.22;;;;;;;-144.73;60.62;54227.09;5024736;28;20018;-73
2023/09/08 10:04:06;;;;;;;19.48;6.25;;;;;;;-144.73;60.19;54220.94;5018924;28;20432;-74
2023/09/08 10:06:34;;;;;;;16.92;6.65;;;;;;;-144.73;58.91;54171.66;5023153;28;20120;-73
2023/09/08 10:09:03;;;;;;;11.70;6.18;;;;;;;-144.73;58.80;54177.81;5025671;28;20125;-74
2023/09/08 10:11:33;;;;;;;9.88;5.95;;;;;;;-144.73;59.25;54194.25;5021537;28;20031;-74
2023/09/08 10:14:00;;;;;;;16.67;5.95;;;;;;;-144.73;62.29;54173.72;5024896;28;20495;-74
2023/09/08 10:16:28;;;;;;;10.68;5.50;;;;;;;-144.73;57.92;54198.34;5024822;28;20041;-74
2023/09/08 10:18:57;;;;;;;12.95;6.18;;;;;;;-144.73;57.31;54190.13;5025911;28;20180;-74
2023/09/08 10:21:26;;;;;;;16.65;5.72;;;;;;;-144.73;58.65;54165.50;5020985;28;20024;-73
2023/09/08 10:24:00;;;;;;;18.23;6.18;;;;;;;-144.73;57.06;54186.03;5025291;28;20021;-74
2023/09/08 10:26:29;;;;;;;13.55;5.78;;;;;;;-144.73;56.42;54194.25;5024008;28;20021;-75
2023/09/08 10:28:56;;;;;;;14.15;5.82;;;;;;;-144.73;57.42;54190.13;5030606;28;20037;-75
2023/09/08 10:31:28;;;;;;;14.90;6.75;;;;;;;-144.73;54.71;54190.13;5032824;28;20057;-74
2023/09/08 10:33:55;;;;;;;14.55;6.07;;;;;;;-144.73;53.45;54153.19;5032552;28;20042;-75
2023/09/08 10:36:21;;;;;;;14.95;5.10;;;;;;;-144.73;54.56;54210.66;5031131;28;20026;-74
2023/09/08 10:38:49;;;;;;;10.40;5.50;;;;;;;-144.73;54.52;54157.31;5030773;28;20026;-73
2023/09/08 10:41:17;;;;;;;15.80;5.78;;;;;;;-144.73;55.16;54128.56;5033344;28;20024;-74
2023/09/08 10:43:56;;;;;;;19.00;5.72;;;;;;;-144.73;53.55;54153.19;5032454;28;20037;-74
2023/09/08 10:46:32;;;;;;;7.75;5.50;;;;;;;-144.73;52.68;54173.72;5033045;28;20033;-74
2023/09/08 10:49:06;;;;;;;10.90;5.53;;;;;;;-144.73;53.17;54181.94;5032168;28;20096;-74
2023/09/08 10:51:33;;;;;;;9.98;5.95;;;;;;;-144.73;52.70;54173.72;5032326;28;20026;-74
2023/09/08 10:53:58;;;;;;;14.73;5.60;;;;;;;-144.73;53.60;54218.88;5032677;28;20064;-74
2023/09/08 10:56:48;;;;;;;13.50;5.60;;;;;;;-144.73;52.90;54161.41;5031682;28;20108;-73
2023/09/08 10:59:13;;;;;;;12.32;5.68;;;;;;;-144.73;52.63;54177.81;5025368;28;20116;-74
2023/09/08 11:01:39;;;;;;;17.70;5.72;;;;;;;-144.73;52.75;54186.03;5031954;28;20127;-74